Time;durP1;ratioP1;P1;durP2;ratioP2;P2;SDS_P1;SDS_P2;PMS_P1;PMS_P2;Temp;Humidity;BMP_temperature;BMP_pressure;BME280_temperature;BME280_humidity;BME280_pressure;Samples;Min_cycle;Max_cycle;Signal;HPM_P1;HPM_P2
2024/01/04 00:00:40;;;;;;;;;;;3.00;87.00;;;;;;4134048;28;19992;-84
2024/01/04 00:03:01;;;;;;;;;;;2.90;86.30;;;;;;4141007;28;19917;-87
2024/01/04 00:05:22;;;;;;;;;;;2.90;86.20;;;;;;4129408;28;20305;-85
2024/01/04 00:07:43;;;;;;;;;;;3.00;86.30;;;;;;4145476;28;19914;-86
2024/01/04 00:09:43;;;;;;;;;;;2.90;86.10;;;;;;4130519;28;19989;-85
2024/01/04 00:11:44;;;;;;;;;;;3.00;86.30;;;;;;4131902;28;19916;-84
2024/01/04 00:13:46;;;;;;;;;;;2.90;86.10;;;;;;4127489;28;19914;-84
2024/01/04 00:16:16;;;;;;;;;;;2.80;86.20;;;;;;4142831;28;19914;-85
2024/01/04 00:18:17;;;;;;;;;;;2.80;86.20;;;;;;4146986;28;19918;-86
2024/01/04 00:20:37;;;;;;;;;;;2.80;86.30;;;;;;4141763;28;19917;-85
2024/01/04 00:23:04;;;;;;;;;;;2.80;86.30;;;;;;4128271;28;19918;-84
2024/01/04 00:25:25;;;;;;;;;;;2.60;86.10;;;;;;4146935;28;19949;-87
2024/01/04 00:27:45;;;;;;;;;;;2.80;86.10;;;;;;4145610;28;20019;-84
2024/01/04 00:30:06;;;;;;;;;;;2.70;85.80;;;;;;4145725;28;19925;-84
2024/01/04 00:32:27;;;;;;;;;;;2.60;85.80;;;;;;4145397;28;19971;-85
2024/01/04 00:34:47;;;;;;;;;;;2.60;85.80;;;;;;4143789;28;19979;-86
2024/01/04 00:37:08;;;;;;;;;;;2.50;85.70;;;;;;4141811;28;19917;-84
2024/01/04 00:39:39;;;;;;;;;;;2.60;85.80;;;;;;4129410;28;19917;-83
2024/01/04 00:42:03;;;;;;;;;;;2.50;85.80;;;;;;4129921;28;20012;-85
2024/01/04 00:44:27;;;;;;;;;;;2.40;85.80;;;;;;4131673;28;19944;-86
2024/01/04 00:46:27;;;;;;;;;;;2.40;85.70;;;;;;4130220;28;19918;-84
2024/01/04 00:48:28;;;;;;;;;;;2.30;85.70;;;;;;4143685;28;19913;-85
2024/01/04 00:50:29;;;;;;;;;;;2.40;85.80;;;;;;4148078;28;19952;-84
2024/01/04 00:52:29;;;;;;;;;;;2.30;85.90;;;;;;4130221;28;19918;-86
2024/01/04 00:54:30;;;;;;;;;;;2.40;85.80;;;;;;4129816;28;20336;-88
2024/01/04 00:56:51;;;;;;;;;;;2.40;85.80;;;;;;4145245;28;20529;-87
2024/01/04 00:59:12;;;;;;;;;;;2.40;85.80;;;;;;4129331;28;19913;-84
2024/01/04 01:01:35;;;;;;;;;;;2.40;85.90;;;;;;4146216;28;20024;-84
2024/01/04 01:04:01;;;;;;;;;;;2.30;85.70;;;;;;4132591;28;19929;-85
2024/01/04 01:06:22;;;;;;;;;;;2.30;86.50;;;;;;4128239;28;19918;-84
2024/01/04 01:08:48;;;;;;;;;;;2.20;85.50;;;;;;4145125;28;19941;-83
2024/01/04 01:11:18;;;;;;;;;;;2.10;85.40;;;;;;4143115;28;19919;-85
2024/01/04 01:13:41;;;;;;;;;;;2.10;85.50;;;;;;4130664;28;19917;-86
2024/01/04 01:16:02;;;;;;;;;;;2.10;85.50;;;;;;4146087;28;19924;-83
2024/01/04 01:18:23;;;;;;;;;;;2.10;85.50;;;;;;4131604;28;20024;-83
2024/01/04 01:20:44;;;;;;;;;;;2.00;85.50;;;;;;4130654;28;19961;-83
2024/01/04 01:23:05;;;;;;;;;;;2.00;85.50;;;;;;4129272;28;19957;-84
2024/01/04 01:25:26;;;;;;;;;;;1.90;85.50;;;;;;4147085;28;19926;-83
2024/01/04 01:27:49;;;;;;;;;;;1.90;85.40;;;;;;4131157;28;19921;-85
2024/01/04 01:30:12;;;;;;;;;;;1.90;85.60;;;;;;4130158;28;19918;-83
2024/01/04 01:32:36;;;;;;;;;;;1.80;85.60;;;;;;4131458;28;19918;-84
2024/01/04 01:34:57;;;;;;;;;;;1.80;85.50;;;;;;4127231;28;19921;-84
2024/01/04 01:37:09;;;;;;;;;;;1.70;85.50;;;;;;4145348;28;19913;-84
2024/01/04 01:39:11;;;;;;;;;;;1.70;85.40;;;;;;4119441;28;19922;-85
2024/01/04 01:41:17;;;;;;;;;;;1.70;85.50;;;;;;4124740;28;19925;-83
2024/01/04 01:43:38;;;;;;;;;;;1.80;85.60;;;;;;4129903;28;19997;-85
2024/01/04 01:45:59;;;;;;;;;;;1.60;85.50;;;;;;4129326;28;19913;-84
2024/01/04 01:48:20;;;;;;;;;;;1.60;85.50;;;;;;4141710;28;19945;-84
2024/01/04 01:50:21;;;;;;;;;;;1.60;85.90;;;;;;4109224;28;19914;-85
2024/01/04 01:52:42;;;;;;;;;;;1.50;86.00;;;;;;4143774;28;19973;-85
2024/01/04 01:55:02;;;;;;;;;;;1.50;86.20;;;;;;4128606;28;19918;-85
2024/01/04 01:57:19;;;;;;;;;;;1.40;86.30;;;;;;4128403;28;20154;-85
2024/01/04 01:59:39;;;;;;;;;;;1.40;86.50;;;;;;4142759;28;19918;-84
2024/01/04 02:02:00;;;;;;;;;;;1.40;86.50;;;;;;4142529;28;19917;-86
2024/01/04 02:04:24;;;;;;;;;;;1.40;86.60;;;;;;4142305;28;19921;-85
2024/01/04 02:06:45;;;;;;;;;;;1.30;86.40;;;;;;4127493;28;19918;-86
2024/01/04 02:09:17;;;;;;;;;;;1.30;86.50;;;;;;4142578;28;20012;-84
2024/01/04 02:11:39;;;;;;;;;;;1.10;86.50;;;;;;4129886;28;19957;-83
2024/01/04 02:14:00;;;;;;;;;;;1.30;86.60;;;;;;4145222;28;19924;-84
2024/01/04 02:16:21;;;;;;;;;;;1.20;86.60;;;;;;4128971;28;19918;-83
2024/01/04 02:18:44;;;;;;;;;;;1.20;86.70;;;;;;4126321;28;19913;-87
2024/01/04 02:21:05;;;;;;;;;;;1.10;86.40;;;;;;4126025;28;20230;-84
2024/01/04 02:23:06;;;;;;;;;;;1.10;86.70;;;;;;4138049;28;19971;-85
2024/01/04 02:25:07;;;;;;;;;;;1.00;87.60;;;;;;4141676;28;19921;-82
2024/01/04 02:27:08;;;;;;;;;;;0.90;87.00;;;;;;4139953;28;19917;-84
2024/01/04 02:29:11;;;;;;;;;;;1.00;87.40;;;;;;4108195;28;19964;-83
2024/01/04 02:31:11;;;;;;;;;;;1.00;87.60;;;;;;4142192;28;19913;-84
2024/01/04 02:33:12;;;;;;;;;;;0.90;87.50;;;;;;4108382;28;20042;-84
2024/01/04 02:35:13;;;;;;;;;;;0.80;87.60;;;;;;4111680;28;20352;-83
2024/01/04 02:37:14;;;;;;;;;;;0.80;87.50;;;;;;4108853;28;19914;-83
2024/01/04 02:39:23;;;;;;;;;;;0.90;87.60;;;;;;4124736;28;20503;-83
2024/01/04 02:41:25;;;;;;;;;;;0.80;87.50;;;;;;4124524;28;20004;-84
2024/01/04 02:43:33;;;;;;;;;;;0.80;87.30;;;;;;4128176;28;19917;-82
2024/01/04 02:45:53;;;;;;;;;;;0.60;87.10;;;;;;4143749;28;19928;-84
2024/01/04 02:48:16;;;;;;;;;;;0.60;87.60;;;;;;4144462;28;19917;-83
2024/01/04 02:50:43;;;;;;;;;;;0.60;87.70;;;;;;4127161;28;19921;-84
2024/01/04 02:53:03;;;;;;;;;;;0.70;87.70;;;;;;4129979;28;19914;-85
2024/01/04 02:55:24;;;;;;;;;;;0.50;87.60;;;;;;4146354;28;19989;-82
2024/01/04 02:57:45;;;;;;;;;;;0.50;87.60;;;;;;4140492;28;19953;-84
2024/01/04 03:00:06;;;;;;;;;;;0.50;88.00;;;;;;4142555;28;19917;-83
2024/01/04 03:02:38;;;;;;;;;;;0.50;87.80;;;;;;4144691;28;19924;-85
2024/01/04 03:04:58;;;;;;;;;;;0.40;87.70;;;;;;4142461;28;20001;-84
2024/01/04 03:10:06;;;;;;;;;;;0.40;87.90;;;;;;4142897;28;19913;-85
2024/01/04 03:12:10;;;;;;;;;;;0.30;87.80;;;;;;4126106;28;19918;-84
2024/01/04 03:14:10;;;;;;;;;;;0.20;88.00;;;;;;4109676;28;20039;-84
2024/01/04 03:16:23;;;;;;;;;;;0.40;88.20;;;;;;4125117;28;20020;-85
2024/01/04 03:18:24;;;;;;;;;;;0.20;88.00;;;;;;4124789;28;19929;-83
2024/01/04 03:20:27;;;;;;;;;;;0.20;88.20;;;;;;4142621;28;19917;-83
2024/01/04 03:22:29;;;;;;;;;;;0.20;88.20;;;;;;4142633;28;19977;-84
2024/01/04 03:24:34;;;;;;;;;;;0.10;88.10;;;;;;4144360;28;20283;-84
2024/01/04 03:26:41;;;;;;;;;;;0.10;88.30;;;;;;4126045;28;19914;-84
2024/01/04 03:28:54;;;;;;;;;;;0.10;88.30;;;;;;4145638;28;20287;-84
2024/01/04 03:31:04;;;;;;;;;;;0.10;88.30;;;;;;4129449;28;19921;-83
2024/01/04 03:33:25;;;;;;;;;;;0.10;88.00;;;;;;4140722;28;20005;-84
2024/01/04 03:35:52;;;;;;;;;;;0.00;87.80;;;;;;4126978;28;19972;-84
2024/01/04 03:38:12;;;;;;;;;;;0.00;88.20;;;;;;4143418;28;19940;-85
2024/01/04 03:40:33;;;;;;;;;;;-0.10;88.10;;;;;;4128982;28;20004;-83
2024/01/04 03:42:53;;;;;;;;;;;-0.10;88.10;;;;;;4127600;28;19933;-83
2024/01/04 03:45:16;;;;;;;;;;;-0.20;88.10;;;;;;4143784;28;19913;-83
2024/01/04 03:47:37;;;;;;;;;;;-0.10;88.30;;;;;;4141104;28;19924;-82
2024/01/04 03:49:59;;;;;;;;;;;-0.20;88.10;;;;;;4141884;28;19914;-83
2024/01/04 03:52:19;;;;;;;;;;;-0.10;88.10;;;;;;4145151;28;19961;-83
2024/01/04 03:54:40;;;;;;;;;;;-0.30;87.80;;;;;;4142604;28;19957;-83
2024/01/04 03:57:01;;;;;;;;;;;-0.30;88.00;;;;;;4142491;28;19917;-84
2024/01/04 03:59:21;;;;;;;;;;;-0.30;88.30;;;;;;4142946;28;19924;-81
2024/01/04 04:01:45;;;;;;;;;;;-0.40;88.00;;;;;;4142276;28;19909;-83
2024/01/04 04:03:45;;;;;;;;;;;-0.20;88.30;;;;;;4124891;28;19929;-82
2024/01/04 04:05:46;;;;;;;;;;;-0.20;88.30;;;;;;4111551;28;20001;-84
2024/01/04 04:07:52;;;;;;;;;;;-0.30;88.30;;;;;;4124064;28;20012;-83
2024/01/04 04:09:56;;;;;;;;;;;-0.40;87.90;;;;;;4145767;28;20323;-81
2024/01/04 04:12:14;;;;;;;;;;;-0.30;88.10;;;;;;4144197;28;19917;-81
2024/01/04 04:14:24;;;;;;;;;;;-0.30;88.10;;;;;;4127193;28;20601;-82
2024/01/04 04:16:45;;;;;;;;;;;-0.30;87.80;;;;;;4143612;28;20125;-81
2024/01/04 04:19:05;;;;;;;;;;;-0.30;87.70;;;;;;4137539;28;19921;-82
2024/01/04 04:21:26;;;;;;;;;;;-0.30;87.80;;;;;;4143347;28;19967;-83
2024/01/04 04:23:49;;;;;;;;;;;-0.30;87.60;;;;;;4142539;28;19933;-85
2024/01/04 04:26:10;;;;;;;;;;;-0.30;87.60;;;;;;4143285;28;19918;-81
2024/01/04 04:28:30;;;;;;;;;;;-0.30;87.40;;;;;;4143654;28;19913;-81
2024/01/04 04:30:51;;;;;;;;;;;-0.40;87.10;;;;;;4128473;28;19932;-83
2024/01/04 04:33:11;;;;;;;;;;;-0.40;86.90;;;;;;4127281;28;20049;-86
2024/01/04 04:35:32;;;;;;;;;;;-0.30;87.20;;;;;;4144578;28;20300;-84
2024/01/04 04:37:52;;;;;;;;;;;-0.30;87.10;;;;;;4142503;28;19913;-82
2024/01/04 04:39:53;;;;;;;;;;;-0.40;86.70;;;;;;4125027;28;19914;-85
2024/01/04 04:41:54;;;;;;;;;;;-0.30;87.00;;;;;;4127511;28;19976;-84
2024/01/04 04:43:54;;;;;;;;;;;-0.30;86.70;;;;;;4126760;28;19925;-82
2024/01/04 04:45:55;;;;;;;;;;;-0.30;86.70;;;;;;4122914;28;19971;-82
2024/01/04 04:48:19;;;;;;;;;;;-0.30;86.60;;;;;;4141499;28;19921;-83
2024/01/04 04:50:39;;;;;;;;;;;-0.30;86.30;;;;;;4141767;28;20031;-83
2024/01/04 04:52:47;;;;;;;;;;;-0.30;86.20;;;;;;4124832;28;20321;-82
2024/01/04 04:55:08;;;;;;;;;;;-0.30;86.00;;;;;;4128710;28;19993;-81
2024/01/04 04:57:28;;;;;;;;;;;-0.40;85.50;;;;;;4141282;28;20385;-83
2024/01/04 04:59:48;;;;;;;;;;;-0.30;85.60;;;;;;4124264;28;19925;-83
2024/01/04 05:02:10;;;;;;;;;;;-0.20;85.70;;;;;;4124241;28;19925;-82
2024/01/04 05:04:12;;;;;;;;;;;-0.40;85.10;;;;;;4123884;28;19918;-82
2024/01/04 05:06:35;;;;;;;;;;;-0.20;85.40;;;;;;4141884;28;19918;-83
2024/01/04 05:08:55;;;;;;;;;;;-0.40;85.10;;;;;;4142176;28;19999;-82
2024/01/04 05:11:16;;;;;;;;;;;-0.30;85.10;;;;;;4128468;28;19921;-84
2024/01/04 05:13:36;;;;;;;;;;;-0.40;84.60;;;;;;4125941;28;19922;-82
2024/01/04 05:16:00;;;;;;;;;;;-0.30;84.90;;;;;;4137291;28;19914;-83
2024/01/04 05:18:23;;;;;;;;;;;-0.40;84.80;;;;;;4129971;28;19922;-82
2024/01/04 05:20:47;;;;;;;;;;;-0.40;84.70;;;;;;4124655;28;19914;-81
2024/01/04 05:22:47;;;;;;;;;;;-0.30;84.60;;;;;;4143041;28;20005;-82
2024/01/04 05:24:48;;;;;;;;;;;-0.30;84.90;;;;;;4139451;28;19913;-82
2024/01/04 05:26:49;;;;;;;;;;;-0.30;84.40;;;;;;4127284;28;19913;-81
2024/01/04 05:28:49;;;;;;;;;;;-0.40;84.40;;;;;;4106876;28;19922;-82
2024/01/04 05:30:50;;;;;;;;;;;-0.40;84.20;;;;;;4123596;28;20029;-83
2024/01/04 05:32:51;;;;;;;;;;;-0.40;84.10;;;;;;4126331;28;19921;-84
2024/01/04 05:34:51;;;;;;;;;;;-0.50;83.80;;;;;;4105820;28;19918;-83
2024/01/04 05:36:52;;;;;;;;;;;-0.50;84.00;;;;;;4123990;28;19918;-83
2024/01/04 05:38:56;;;;;;;;;;;-0.40;84.10;;;;;;4124178;28;19930;-84
2024/01/04 05:41:24;;;;;;;;;;;-0.50;83.90;;;;;;4142076;28;19975;-81
2024/01/04 05:44:09;;;;;;;;;;;-0.50;83.90;;;;;;4166514;28;19927;-81
2024/01/04 05:49:17;;;;;;;;;;;-0.50;83.90;;;;;;4138935;28;19922;-82
2024/01/04 05:51:45;;;;;;;;;;;-0.50;83.90;;;;;;4139898;28;19914;-83
2024/01/04 05:54:08;;;;;;;;;;;-0.50;83.90;;;;;;4142018;28;19949;-83
2024/01/04 05:56:29;;;;;;;;;;;-0.60;84.00;;;;;;4139772;28;19933;-82
2024/01/04 05:58:49;;;;;;;;;;;-0.50;84.20;;;;;;4139820;28;20555;-82
2024/01/04 06:01:10;;;;;;;;;;;-0.60;84.00;;;;;;4140009;28;19957;-85
2024/01/04 06:03:31;;;;;;;;;;;-0.60;83.80;;;;;;4138369;28;19973;-80
2024/01/04 06:05:51;;;;;;;;;;;-0.60;83.90;;;;;;4163096;28;19967;-82
2024/01/04 06:07:52;;;;;;;;;;;-0.60;83.90;;;;;;4167325;28;19917;-81
2024/01/04 06:09:53;;;;;;;;;;;-0.60;84.00;;;;;;4140667;28;19918;-83
2024/01/04 06:11:53;;;;;;;;;;;-0.60;84.00;;;;;;4154072;28;19984;-83
2024/01/04 06:13:56;;;;;;;;;;;-0.70;83.70;;;;;;4155216;28;20207;-82
2024/01/04 06:15:57;;;;;;;;;;;-0.70;83.70;;;;;;4136192;28;19917;-82
2024/01/04 06:17:58;;;;;;;;;;;-0.70;83.70;;;;;;4140322;28;19921;-82
2024/01/04 06:19:59;;;;;;;;;;;-0.70;84.10;;;;;;4151860;28;19936;-82
2024/01/04 06:22:07;;;;;;;;;;;-0.70;84.00;;;;;;4123095;28;19940;-82
2024/01/04 06:24:08;;;;;;;;;;;-0.70;84.20;;;;;;4137803;28;19913;-83
2024/01/04 06:26:09;;;;;;;;;;;-0.70;84.20;;;;;;4138735;28;19944;-82
2024/01/04 06:28:12;;;;;;;;;;;-0.70;84.10;;;;;;4140125;28;19918;-83
2024/01/04 06:30:25;;;;;;;;;;;-0.70;84.00;;;;;;4136661;28;19918;-85
2024/01/04 06:32:46;;;;;;;;;;;-0.80;83.90;;;;;;4154711;28;19917;-82
2024/01/04 06:35:07;;;;;;;;;;;-0.80;84.10;;;;;;4137466;28;19917;-82
2024/01/04 06:37:27;;;;;;;;;;;-0.70;84.20;;;;;;4141033;28;19952;-82
2024/01/04 06:39:50;;;;;;;;;;;-0.80;84.20;;;;;;4138988;28;19913;-83
2024/01/04 06:42:10;;;;;;;;;;;-0.80;84.10;;;;;;4138330;28;19918;-82
2024/01/04 06:44:32;;;;;;;;;;;-0.70;84.30;;;;;;4140239;28;19918;-84
2024/01/04 06:46:53;;;;;;;;;;;-0.80;84.20;;;;;;4140049;28;20011;-84
2024/01/04 06:48:56;;;;;;;;;;;-0.80;84.20;;;;;;4139990;28;20008;-84
2024/01/04 06:51:17;;;;;;;;;;;-0.70;84.30;;;;;;4167162;28;19924;-83
2024/01/04 06:53:37;;;;;;;;;;;-0.80;84.00;;;;;;4169373;28;19924;-82
2024/01/04 06:55:58;;;;;;;;;;;-0.80;84.10;;;;;;4150906;28;19913;-83
2024/01/04 06:58:22;;;;;;;;;;;-0.80;83.60;;;;;;4142919;28;19921;-83
2024/01/04 07:00:42;;;;;;;;;;;-0.80;83.50;;;;;;4126844;28;19914;-81
2024/01/04 07:03:03;;;;;;;;;;;-0.80;83.50;;;;;;4152172;28;19928;-83
2024/01/04 07:05:23;;;;;;;;;;;-0.70;83.60;;;;;;4124297;28;19924;-84
2024/01/04 07:07:44;;;;;;;;;;;-0.80;83.30;;;;;;4129619;28;19917;-81
2024/01/04 07:10:05;;;;;;;;;;;-0.80;83.40;;;;;;4124647;28;19918;-82
2024/01/04 07:12:25;;;;;;;;;;;-0.80;83.10;;;;;;4129514;28;19957;-83
2024/01/04 07:14:26;;;;;;;;;;;-0.80;82.60;;;;;;4127777;28;19973;-83
2024/01/04 07:16:26;;;;;;;;;;;-0.80;82.80;;;;;;4126370;28;20402;-83
2024/01/04 07:18:27;;;;;;;;;;;-0.90;82.80;;;;;;4138701;28;19928;-83
2024/01/04 07:20:48;;;;;;;;;;;-0.80;82.90;;;;;;4129568;28;19938;-83
2024/01/04 07:23:09;;;;;;;;;;;-0.80;82.70;;;;;;4128751;28;20005;-83
2024/01/04 07:25:11;;;;;;;;;;;-0.80;82.40;;;;;;4125263;28;20119;-83
2024/01/04 07:27:31;;;;;;;;;;;-0.80;82.20;;;;;;4127891;28;19914;-80
2024/01/04 07:29:52;;;;;;;;;;;-0.80;81.70;;;;;;4127428;28;19922;-83
2024/01/04 07:32:15;;;;;;;;;;;-0.80;81.60;;;;;;4146472;28;19960;-82
2024/01/04 07:34:17;;;;;;;;;;;-0.80;81.70;;;;;;4130274;28;20419;-85
2024/01/04 07:36:38;;;;;;;;;;;-0.80;81.80;;;;;;4147388;28;19928;-84
2024/01/04 07:38:58;;;;;;;;;;;-0.80;81.70;;;;;;4128514;28;19917;-81
2024/01/04 07:41:19;;;;;;;;;;;-0.80;81.60;;;;;;4124899;28;20000;-83
2024/01/04 07:43:47;;;;;;;;;;;-0.80;81.50;;;;;;4140602;28;19917;-85
2024/01/04 07:46:19;;;;;;;;;;;-0.70;81.00;;;;;;4127143;28;19928;-81
2024/01/04 07:48:40;;;;;;;;;;;-0.80;80.60;;;;;;4128679;28;19926;-85
2024/01/04 07:51:03;;;;;;;;;;;-0.80;80.20;;;;;;4130655;28;19918;-85
2024/01/04 07:53:26;;;;;;;;;;;-0.80;80.00;;;;;;4131848;28;19914;-82
2024/01/04 07:55:29;;;;;;;;;;;-0.80;80.00;;;;;;4130402;28;19914;-86
2024/01/04 07:57:30;;;;;;;;;;;-0.80;79.60;;;;;;4129392;28;19918;-83
2024/01/04 07:59:39;;;;;;;;;;;-0.80;79.60;;;;;;4131499;28;19980;-84
2024/01/04 08:01:47;;;;;;;;;;;-0.80;79.60;;;;;;4158153;28;20314;-84
2024/01/04 08:03:51;;;;;;;;;;;-0.80;79.40;;;;;;4129320;28;19926;-86
2024/01/04 08:05:52;;;;;;;;;;;-0.70;79.20;;;;;;4158644;28;20297;-83
2024/01/04 08:08:15;;;;;;;;;;;-0.80;78.80;;;;;;4143211;28;19929;-81
2024/01/04 08:10:52;;;;;;;;;;;-0.70;78.70;;;;;;4129913;28;19918;-82
2024/01/04 08:13:02;;;;;;;;;;;-0.90;78.40;;;;;;4127203;28;19922;-84
2024/01/04 08:15:33;;;;;;;;;;;-0.70;78.30;;;;;;4125368;28;19933;-82
2024/01/04 08:17:56;;;;;;;;;;;-0.80;78.20;;;;;;4132124;28;19928;-82
2024/01/04 08:20:22;;;;;;;;;;;-0.80;78.10;;;;;;4137108;28;19914;-83
2024/01/04 08:22:45;;;;;;;;;;;-0.80;78.00;;;;;;4152244;28;20011;-82
2024/01/04 08:25:13;;;;;;;;;;;-0.70;78.00;;;;;;4128562;28;19918;-84
2024/01/04 08:27:34;;;;;;;;;;;-0.80;77.70;;;;;;4147849;28;20419;-83
2024/01/04 08:29:37;;;;;;;;;;;-0.80;77.70;;;;;;4127394;28;19922;-86
2024/01/04 08:31:50;;;;;;;;;;;-0.90;77.40;;;;;;4146792;28;19917;-81
2024/01/04 08:34:01;;;;;;;;;;;-0.90;77.60;;;;;;4128543;28;19917;-82
2024/01/04 08:36:08;;;;;;;;;;;-0.90;78.30;;;;;;4155871;28;19917;-82
2024/01/04 08:38:16;;;;;;;;;;;-0.80;77.60;;;;;;4126857;28;21375;-83
2024/01/04 08:40:43;;;;;;;;;;;-0.80;77.30;;;;;;4127467;28;19957;-85
2024/01/04 08:43:06;;;;;;;;;;;-0.80;77.40;;;;;;4139947;28;19933;-84
2024/01/04 08:45:12;;;;;;;;;;;-0.80;77.10;;;;;;4145101;28;19968;-84
2024/01/04 08:47:44;;;;;;;;;;;-0.70;77.30;;;;;;4145237;28;19924;-85
2024/01/04 08:50:20;;;;;;;;;;;-0.80;76.80;;;;;;4131286;28;19957;-82
2024/01/04 08:52:40;;;;;;;;;;;-0.80;77.00;;;;;;4130574;28;20064;-82
2024/01/04 08:55:04;;;;;;;;;;;-0.70;77.10;;;;;;4126058;28;19921;-82
2024/01/04 08:57:08;;;;;;;;;;;-0.80;77.10;;;;;;4143786;28;19914;-84
2024/01/04 08:59:08;;;;;;;;;;;-0.80;77.20;;;;;;4132407;28;19914;-84
2024/01/04 09:01:12;;;;;;;;;;;-0.70;77.30;;;;;;4131347;28;20579;-83
2024/01/04 09:03:24;;;;;;;;;;;-0.80;76.90;;;;;;4143634;28;20015;-86
2024/01/04 09:05:24;;;;;;;;;;;-0.80;76.90;;;;;;4162169;28;19949;-84
2024/01/04 09:07:30;;;;;;;;;;;-0.80;76.90;;;;;;4131041;28;20437;-86
2024/01/04 09:09:33;;;;;;;;;;;-0.80;76.70;;;;;;4127584;28;19917;-85
2024/01/04 09:11:39;;;;;;;;;;;-0.70;76.90;;;;;;4131028;28;20376;-85
2024/01/04 09:13:49;;;;;;;;;;;-0.70;76.80;;;;;;4159448;28;19933;-86
2024/01/04 09:16:02;;;;;;;;;;;-0.80;76.70;;;;;;4140683;28;19921;-84
2024/01/04 09:18:23;;;;;;;;;;;-0.70;76.70;;;;;;4128220;28;20000;-86
2024/01/04 09:20:47;;;;;;;;;;;-0.70;76.40;;;;;;4125863;28;19941;-83
2024/01/04 09:23:07;;;;;;;;;;;-0.80;76.30;;;;;;4128530;28;19926;-87
2024/01/04 09:25:28;;;;;;;;;;;-0.70;76.40;;;;;;4129174;28;19961;-85
2024/01/04 09:27:56;;;;;;;;;;;-0.70;76.40;;;;;;4128839;28;19913;-85
2024/01/04 09:30:20;;;;;;;;;;;-0.70;76.10;;;;;;4127858;28;19961;-84
2024/01/04 09:32:41;;;;;;;;;;;-0.70;76.00;;;;;;4130733;28;19918;-83
2024/01/04 09:35:25;;;;;;;;;;;-0.70;75.70;;;;;;4128186;28;19928;-84
2024/01/04 09:37:46;;;;;;;;;;;-0.80;75.50;;;;;;4126426;28;19918;-83
2024/01/04 09:40:07;;;;;;;;;;;-0.70;75.70;;;;;;4129385;28;19977;-87
2024/01/04 09:42:34;;;;;;;;;;;-0.70;75.70;;;;;;4143765;28;19918;-84
2024/01/04 09:44:55;;;;;;;;;;;-0.60;75.80;;;;;;4126547;28;20470;-86
2024/01/04 09:47:20;;;;;;;;;;;-0.70;75.00;;;;;;4126333;28;19925;-84
2024/01/04 09:49:46;;;;;;;;;;;-0.70;75.00;;;;;;4124881;28;19913;-85
2024/01/04 09:51:49;;;;;;;;;;;-0.80;74.50;;;;;;4151430;28;19944;-87
2024/01/04 09:53:58;;;;;;;;;;;-0.70;74.80;;;;;;4127197;28;19921;-85
2024/01/04 09:55:59;;;;;;;;;;;-0.70;74.60;;;;;;4126436;28;19914;-85
2024/01/04 09:58:11;;;;;;;;;;;;;;;;;;;;;
2024/01/04 10:00:12;;;;;;;;;;;-0.80;73.90;;;;;;4129446;28;19914;-86
2024/01/04 10:02:19;;;;;;;;;;;-0.80;73.60;;;;;;4127708;28;19933;-85
2024/01/04 10:04:39;;;;;;;;;;;-0.80;74.00;;;;;;4130582;28;20451;-86
2024/01/04 10:06:41;;;;;;;;;;;-0.60;74.50;;;;;;4144415;28;20119;-86
2024/01/04 10:08:50;;;;;;;;;;;-0.70;74.20;;;;;;4153118;28;20159;-84
2024/01/04 10:11:14;;;;;;;;;;;-0.70;74.40;;;;;;4129486;28;19930;-86
2024/01/04 10:13:21;;;;;;;;;;;-0.80;73.90;;;;;;4110744;28;19933;-84
2024/01/04 10:15:51;;;;;;;;;;;-0.70;73.70;;;;;;4139548;28;19914;-85
2024/01/04 10:18:16;;;;;;;;;;;-0.80;73.80;;;;;;4140601;28;19918;-84
2024/01/04 10:21:03;;;;;;;;;;;-0.80;73.70;;;;;;4127382;28;19924;-83
2024/01/04 10:23:20;;;;;;;;;;;-0.80;73.70;;;;;;4128249;28;19951;-85
2024/01/04 10:25:44;;;;;;;;;;;-0.90;73.40;;;;;;4130485;28;19914;-87
2024/01/04 10:28:08;;;;;;;;;;;-0.80;73.40;;;;;;4149492;28;19957;-87
2024/01/04 10:30:32;;;;;;;;;;;-0.80;73.50;;;;;;4142558;28;20280;-86
2024/01/04 10:32:41;;;;;;;;;;;-0.90;73.50;;;;;;4129714;28;19991;-86
2024/01/04 10:34:50;;;;;;;;;;;-0.80;73.40;;;;;;4118130;28;19918;-86
2024/01/04 10:36:51;;;;;;;;;;;-0.80;73.20;;;;;;4145739;28;20403;-84
2024/01/04 10:39:06;;;;;;;;;;;-0.80;73.20;;;;;;4129651;28;20013;-83
2024/01/04 10:41:10;;;;;;;;;;;-0.90;73.40;;;;;;4144242;28;20012;-84
2024/01/04 10:43:18;;;;;;;;;;;-1.00;73.00;;;;;;4125775;28;19925;-87
2024/01/04 10:45:55;;;;;;;;;;;;;;;;;;;;;
2024/01/04 10:48:20;;;;;;;;;;;-0.80;73.10;;;;;;4126756;28;19917;-85
2024/01/04 10:50:24;;;;;;;;;;;-0.70;73.10;;;;;;4141937;28;19914;-84
2024/01/04 10:52:46;;;;;;;;;;;-0.70;73.00;;;;;;4127593;28;19988;-84
2024/01/04 10:54:56;;;;;;;;;;;-0.60;73.20;;;;;;4128399;28;20364;-82
2024/01/04 10:57:22;;;;;;;;;;;-0.70;73.00;;;;;;4126103;28;19929;-85
2024/01/04 10:59:55;;;;;;;;;;;-0.70;72.60;;;;;;4125903;28;19914;-85
2024/01/04 11:02:19;;;;;;;;;;;-0.50;72.80;;;;;;4128976;28;19918;-83
2024/01/04 11:04:49;;;;;;;;;;;-0.70;72.20;;;;;;4124516;28;20009;-83
2024/01/04 11:07:09;;;;;;;;;;;-0.60;72.00;;;;;;4146067;28;19962;-85
2024/01/04 11:09:34;;;;;;;;;;;-0.70;71.70;;;;;;4126839;28;19914;-84
2024/01/04 11:11:35;;;;;;;;;;;-0.70;71.30;;;;;;4128326;28;19922;-84
2024/01/04 11:13:36;;;;;;;;;;;-0.70;71.20;;;;;;4128842;28;19917;-84
2024/01/04 11:15:48;;;;;;;;;;;-0.70;71.10;;;;;;4125418;28;20376;-86
2024/01/04 11:17:59;;;;;;;;;;;-0.60;71.40;;;;;;4127591;28;19937;-83
2024/01/04 11:20:38;;;;;;;;;;;-0.60;71.40;;;;;;4155830;28;19913;-83
2024/01/04 11:22:41;;;;;;;;;;;-0.60;71.20;;;;;;4156419;28;19917;-84
2024/01/04 11:25:03;;;;;;;;;;;-0.50;71.40;;;;;;4128206;28;19920;-82
2024/01/04 11:27:09;;;;;;;;;;;-0.50;71.20;;;;;;4128662;28;19953;-84
2024/01/04 11:29:17;;;;;;;;;;;-0.40;71.00;;;;;;4126484;28;20458;-87
2024/01/04 11:31:23;;;;;;;;;;;-0.50;71.00;;;;;;4127591;28;19933;-85
2024/01/04 11:33:27;;;;;;;;;;;-0.60;71.10;;;;;;4131685;28;19918;-85
2024/01/04 11:35:34;;;;;;;;;;;-0.50;71.10;;;;;;4140544;28;19914;-87
2024/01/04 11:37:58;;;;;;;;;;;-0.60;70.90;;;;;;4154428;28;19925;-86
2024/01/04 11:40:08;;;;;;;;;;;-0.60;70.70;;;;;;4125944;28;20005;-84
2024/01/04 11:42:14;;;;;;;;;;;-0.60;70.30;;;;;;4129198;28;19953;-83
2024/01/04 11:44:16;;;;;;;;;;;-0.60;70.00;;;;;;4126237;28;19914;-84
2024/01/04 11:46:21;;;;;;;;;;;-0.60;70.00;;;;;;4123906;28;19926;-84
2024/01/04 11:48:25;;;;;;;;;;;-0.50;70.30;;;;;;4127583;28;20299;-83
2024/01/04 11:50:37;;;;;;;;;;;-0.50;70.70;;;;;;4126688;28;19913;-83
2024/01/04 11:52:38;;;;;;;;;;;-0.50;70.50;;;;;;4131232;28;19917;-85
2024/01/04 11:54:44;;;;;;;;;;;-0.50;70.50;;;;;;4126986;28;19949;-84
2024/01/04 11:56:53;;;;;;;;;;;-0.40;70.30;;;;;;4128391;28;19918;-87
2024/01/04 11:59:07;;;;;;;;;;;-0.40;70.20;;;;;;4130814;28;19953;-84
2024/01/04 12:01:10;;;;;;;;;;;-0.30;70.50;;;;;;4145043;28;20311;-84
2024/01/04 12:03:23;;;;;;;;;;;-0.50;70.10;;;;;;4130740;28;19947;-85
2024/01/04 12:05:29;;;;;;;;;;;-0.40;70.40;;;;;;4126658;28;20013;-84
2024/01/04 12:07:32;;;;;;;;;;;-0.40;70.60;;;;;;4129344;28;19924;-84
2024/01/04 12:09:42;;;;;;;;;;;-0.40;70.60;;;;;;4127497;28;19918;-83
2024/01/04 12:11:54;;;;;;;;;;;-0.40;71.00;;;;;;4130147;28;19914;-83
2024/01/04 12:14:05;;;;;;;;;;;-0.40;70.80;;;;;;4127747;28;19925;-83
2024/01/04 12:16:13;;;;;;;;;;;-0.50;70.60;;;;;;4128086;28;19960;-85
2024/01/04 12:18:25;;;;;;;;;;;-0.50;70.90;;;;;;4127623;28;19921;-85
2024/01/04 12:20:31;;;;;;;;;;;-0.40;71.00;;;;;;4128601;28;19918;-86
2024/01/04 12:22:43;;;;;;;;;;;-0.40;70.80;;;;;;4128353;28;19929;-84
2024/01/04 12:24:52;;;;;;;;;;;-0.40;71.10;;;;;;4131152;28;19921;-84
2024/01/04 12:26:58;;;;;;;;;;;-0.40;70.90;;;;;;4128804;28;19921;-85
2024/01/04 12:29:05;;;;;;;;;;;-0.30;70.90;;;;;;4126807;28;19918;-84
2024/01/04 12:31:11;;;;;;;;;;;-0.40;70.80;;;;;;4126933;28;19977;-84
2024/01/04 12:33:12;;;;;;;;;;;-0.60;70.90;;;;;;4128098;28;20023;-85
2024/01/04 12:35:16;;;;;;;;;;;-0.50;70.90;;;;;;4129673;28;19910;-83
2024/01/04 12:37:19;;;;;;;;;;;-0.40;71.30;;;;;;4128898;28;20569;-85
2024/01/04 12:39:22;;;;;;;;;;;-0.40;71.10;;;;;;4142856;28;19917;-82
2024/01/04 12:41:30;;;;;;;;;;;-0.30;71.00;;;;;;4125669;28;19917;-82
2024/01/04 12:43:33;;;;;;;;;;;-0.40;71.20;;;;;;4125496;28;19925;-83
2024/01/04 12:45:51;;;;;;;;;;;-0.40;71.20;;;;;;4126354;28;19925;-85
2024/01/04 12:48:14;;;;;;;;;;;-0.40;71.10;;;;;;4125533;28;19920;-84
2024/01/04 12:50:21;;;;;;;;;;;-0.40;71.20;;;;;;4129012;28;19918;-86
2024/01/04 12:52:28;;;;;;;;;;;-0.40;71.20;;;;;;4129201;28;21481;-86
2024/01/04 12:54:37;;;;;;;;;;;-0.40;71.20;;;;;;4126525;28;19997;-84
2024/01/04 12:56:43;;;;;;;;;;;-0.40;71.40;;;;;;4127933;28;19914;-83
2024/01/04 12:58:49;;;;;;;;;;;-0.50;71.40;;;;;;4125526;28;19929;-85
2024/01/04 13:00:52;;;;;;;;;;;-0.40;71.60;;;;;;4127746;28;19977;-86
2024/01/04 13:02:58;;;;;;;;;;;-0.30;71.60;;;;;;4129053;28;19928;-86
2024/01/04 13:05:09;;;;;;;;;;;-0.20;71.60;;;;;;4128407;28;20388;-85
2024/01/04 13:07:15;;;;;;;;;;;-0.30;71.80;;;;;;4126723;28;19914;-84
2024/01/04 13:09:36;;;;;;;;;;;;;;;;;;;;;
2024/01/04 13:11:40;;;;;;;;;;;-0.30;71.30;;;;;;4125547;28;19918;-86
2024/01/04 13:13:44;;;;;;;;;;;-0.20;71.60;;;;;;4127103;28;20008;-86